Terminal Aerodrome Forecast
Issued by NWS Albany, NY

Home | Current Version | Previous Version | Text Only | Print | Product List | Glossary On
Versions: 1 2 3 4 5 6 7 8 9 10 11 12 13 14 15 16
000
FTUS41 KALY 241120
TAFALB
TAF
KALB 241120Z 2412/2512 12007KT 6SM -SHRA OVC035
      TEMPO 2412/2416 4SM SHRA OVC015
     FM241600 12008KT 6SM -SHRA OVC015
     FM242000 12005KT P6SM VCSH OVC025
     FM250200 11006KT 6SM BR OVC025 PROB30 2502/2508 4SM -SHRA
      OVC015=

USA.gov is the U.S. government's official web portal to all federal, state and local government web resources and services.